Enville, Tennessee
Current Conditions -  °F | °C
As of 9:15 PM on Monday 22 Dec 2014 (Local Time) from KSNH Reporting Station
Overcast Overcast  
Wind Chill: 54°   Ceiling: 600
Heat Index: 54°   Visibility: 8mi
Dew Point: 54°   Wind: 9mph
Humidity: 100%   Direction: 160°SSE
Pressure: 29.69"   Gusts: NA
Location:  35.38°N, 88.43°W
Report Text: KSNH 230315Z AUTO 16008KT 8SM OVC006 12/12 A2969 RMK
Loading
Personal Weather Stations






























Interactive Weather Map New forecast layout! Learn more

10-Day Weather Forecast

Advertisements
Track Severe Weather on mobile